Time;durP1;ratioP1;P1;durP2;ratioP2;P2;SDS_P1;SDS_P2;PMS_P1;PMS_P2;Temp;Humidity;BMP_temperature;BMP_pressure;BME280_temperature;BME280_humidity;BME280_pressure;Samples;Min_cycle;Max_cycle;Signal;HPM_P1;HPM_P2
2022/12/28 00:04:02;;;;;;;4.72;2.67;;;;;;;9.76;84.78;99207.94;5063603;27;20386;-60
2022/12/28 00:06:28;;;;;;;2.85;2.53;;;;;;;9.77;84.89;99217.41;4995193;28;20088;-60
2022/12/28 00:08:56;;;;;;;2.42;2.22;;;;;;;9.79;84.81;99232.06;5002050;28;20559;-60
2022/12/28 00:11:25;;;;;;;2.38;2.17;;;;;;;9.80;84.64;99236.34;4999023;28;20054;-60
2022/12/28 00:13:59;;;;;;;2.10;1.90;;;;;;;9.82;85.39;99229.41;5000836;28;20038;-60
2022/12/28 00:16:31;;;;;;;2.20;2.00;;;;;;;9.83;85.08;99244.06;5004288;28;20046;-60
2022/12/28 00:19:00;;;;;;;3.05;2.33;;;;;;;9.82;85.45;99221.66;5001946;28;20046;-60
2022/12/28 00:21:27;;;;;;;2.13;2.00;;;;;;;9.83;85.39;99238.91;5001233;28;20046;-59
2022/12/28 00:23:56;;;;;;;1.95;1.75;;;;;;;9.87;85.65;99243.16;5008111;28;20042;-59
2022/12/28 00:26:26;;;;;;;2.05;1.92;;;;;;;9.87;85.05;99266.44;5000619;28;20057;-60
2022/12/28 00:28:53;;;;;;;1.80;1.70;;;;;;;9.80;84.81;99270.84;5007082;28;20050;-60
2022/12/28 00:31:29;;;;;;;1.63;1.52;;;;;;;9.60;84.03;99281.41;5002817;28;20053;-60
2022/12/28 00:33:56;;;;;;;4.07;3.72;;;;;;;9.59;84.13;99283.13;5003442;28;20104;-60
2022/12/28 00:36:23;;;;;;;1.30;1.30;;;;;;;9.49;83.42;99295.28;5006125;28;20127;-60
2022/12/28 00:39:10;;;;;;;1.75;1.40;;;;;;;9.34;82.61;99295.44;5001167;28;20132;-60
2022/12/28 00:41:37;;;;;;;1.75;1.65;;;;;;;9.23;82.07;99304.16;5003459;28;20565;-61
2022/12/28 00:44:04;;;;;;;1.88;1.77;;;;;;;9.31;82.43;99310.97;5005338;28;20417;-61
2022/12/28 00:46:30;;;;;;;1.92;1.80;;;;;;;9.24;82.42;99311.06;5006419;28;20129;-60
2022/12/28 00:48:57;;;;;;;3.20;1.95;;;;;;;9.27;82.57;99310.16;5007450;28;20054;-61
2022/12/28 00:51:23;;;;;;;1.77;1.67;;;;;;;9.22;82.66;99317.94;5005701;28;20058;-60
2022/12/28 00:53:50;;;;;;;2.50;2.00;;;;;;;9.21;82.18;99313.66;5009827;28;20141;-60
2022/12/28 00:56:19;;;;;;;4.65;1.80;;;;;;;9.17;82.34;99317.13;5007558;28;20050;-61
2022/12/28 00:58:46;;;;;;;1.85;1.27;;;;;;;9.15;81.51;99303.38;5002523;28;20046;-61
2022/12/28 01:01:17;;;;;;;2.40;1.77;;;;;;;9.13;82.32;99310.28;5003905;28;20058;-60
2022/12/28 01:03:44;;;;;;;1.83;1.73;;;;;;;9.11;82.17;99307.72;5000864;28;20081;-60
2022/12/28 01:06:13;;;;;;;2.25;1.83;;;;;;;9.08;82.07;99304.28;5004392;28;20082;-60
2022/12/28 01:08:40;;;;;;;1.75;1.65;;;;;;;9.06;82.13;99304.31;5001610;28;20686;-60
2022/12/28 01:11:14;;;;;;;1.42;0.13;;;;;;;9.04;82.13;99306.06;4998975;28;20466;-60
2022/12/28 01:13:41;;;;;;;1.48;1.38;;;;;;;9.02;81.54;99305.19;4994448;28;20046;-60
2022/12/28 01:18:50;;;;;;;3.15;0.63;;;;;;;8.98;82.01;99317.28;5053292;27;20393;-60
2022/12/28 01:21:21;;;;;;;2.05;0.50;;;;;;;8.97;82.11;99307.84;5026114;28;20165;-61
2022/12/28 01:23:48;;;;;;;0.63;0.32;;;;;;;8.94;81.91;99300.09;5022939;28;20058;-61
2022/12/28 01:26:15;;;;;;;1.17;0.30;;;;;;;8.89;81.81;99296.72;5019941;28;20080;-61
2022/12/28 01:28:42;;;;;;;0.52;0.52;;;;;;;8.87;81.88;99293.28;5024091;28;20135;-60
2022/12/28 01:31:12;;;;;;;0.50;0.40;;;;;;;8.83;81.45;99291.59;5019238;28;20052;-61
2022/12/28 01:33:39;;;;;;;2.33;0.80;;;;;;;8.78;81.55;99283.03;5020149;28;20085;-61
2022/12/28 01:36:07;;;;;;;0.82;0.40;;;;;;;8.74;82.00;99277.00;5021449;28;20053;-60
2022/12/28 01:38:35;;;;;;;0.57;0.40;;;;;;;8.71;81.77;99274.44;5016714;28;20037;-60
2022/12/28 01:41:06;;;;;;;2.40;0.57;;;;;;;8.65;81.20;99274.50;5022224;28;20049;-60
2022/12/28 01:43:38;;;;;;;1.40;0.65;;;;;;;8.60;81.03;99267.66;5019023;28;20092;-59
2022/12/28 01:46:06;;;;;;;0.35;0.25;;;;;;;8.57;81.86;99280.59;5018314;28;20449;-60
2022/12/28 01:48:35;;;;;;;0.77;0.40;;;;;;;8.54;81.23;99282.34;5023264;28;20051;-60
2022/12/28 01:51:02;;;;;;;2.97;0.57;;;;;;;8.51;81.43;99280.56;5021416;28;20054;-60
2022/12/28 01:53:29;;;;;;;1.20;1.02;;;;;;;8.47;81.58;99279.75;5021811;28;20077;-61
2022/12/28 01:55:56;;;;;;;0.73;0.47;;;;;;;8.46;81.68;99280.63;5017938;28;20053;-61
2022/12/28 01:58:27;;;;;;;0.95;0.65;;;;;;;8.43;81.08;99284.94;5020591;28;20041;-60
2022/12/28 02:00:53;;;;;;;3.13;0.63;;;;;;;8.38;81.63;99285.00;5015929;28;20137;-61
2022/12/28 02:03:25;;;;;;;0.82;0.70;;;;;;;8.34;81.08;99288.44;5015056;28;20053;-60
2022/12/28 02:05:59;;;;;;;0.90;0.40;;;;;;;8.31;81.60;99285.88;5020193;28;20046;-60
2022/12/28 02:11:18;;;;;;;1.92;0.93;;;;;;;8.21;81.56;99298.81;5010951;28;20408;-60
2022/12/28 02:13:47;;;;;;;0.90;0.47;;;;;;;8.19;81.79;99297.97;4984386;28;20065;-60
2022/12/28 02:16:14;;;;;;;2.50;1.20;;;;;;;8.16;81.42;99298.00;4981769;28;21526;-60
2022/12/28 02:18:43;;;;;;;4.30;0.60;;;;;;;8.15;81.27;99283.38;4982313;28;20046;-60
2022/12/28 02:26:55;;;;;;;3.70;1.05;;;;;;;8.19;81.80;99279.94;5080684;27;20415;-60
2022/12/28 02:32:27;;;;;;;1.98;1.42;;;;;;;8.20;81.54;99281.63;5031863;27;20401;-60
2022/12/28 02:35:07;;;;;;;1.92;1.30;;;;;;;8.24;81.41;99287.63;5020972;28;20045;-60
2022/12/28 02:37:42;;;;;;;3.28;1.05;;;;;;;8.27;81.43;99291.94;5015712;28;20145;-60
2022/12/28 02:40:14;;;;;;;1.38;1.27;;;;;;;8.28;81.70;99294.47;5016231;28;20073;-61
2022/12/28 02:42:43;;;;;;;1.15;1.05;;;;;;;8.31;81.98;99280.72;5019868;28;20120;-61
2022/12/28 02:56:59;;;;;;;1.35;0.95;;;;;;;8.30;81.59;99266.97;5019561;27;20398;-61
2022/12/28 02:59:50;;;;;;;1.08;0.75;;;;;;;8.29;81.43;99262.66;5012968;28;20070;-60
2022/12/28 03:11:03;;;;;;;4.68;0.40;;;;;;;8.30;81.48;99248.03;4999549;28;20058;-61
2022/12/28 03:13:44;;;;;;;3.70;0.50;;;;;;;8.28;81.16;99242.03;5007375;28;20050;-60
2022/12/28 03:33:10;;;;;;;3.35;0.43;;;;;;;8.23;81.39;99235.19;4997459;28;20046;-61
2022/12/28 03:38:30;;;;;;;2.22;0.50;;;;;;;8.22;82.11;99227.44;5026809;28;20409;-60
2022/12/28 03:41:06;;;;;;;2.00;0.55;;;;;;;8.20;82.19;99224.88;5020087;28;20128;-61
2022/12/28 03:43:41;;;;;;;2.30;0.95;;;;;;;8.17;81.38;99227.47;5018062;28;20042;-60
2022/12/28 03:48:50;;;;;;;0.82;0.32;;;;;;;8.10;82.10;99228.38;5043605;27;20778;-61
2022/12/28 03:51:22;;;;;;;3.25;0.70;;;;;;;8.07;81.85;99220.69;5020708;28;20077;-60
2022/12/28 03:53:48;;;;;;;1.40;0.82;;;;;;;8.04;81.19;99220.69;4998423;28;20493;-60
2022/12/28 03:58:51;;;;;;;5.22;1.10;;;;;;;8.03;81.62;99213.78;5034962;27;20425;-61
2022/12/28 04:01:18;;;;;;;3.50;0.73;;;;;;;8.05;82.21;99215.53;5017549;28;20143;-60
2022/12/28 04:03:45;;;;;;;4.65;1.50;;;;;;;8.07;82.21;99207.78;5019626;28;20478;-62
2022/12/28 04:06:15;;;;;;;3.78;0.98;;;;;;;8.08;81.74;99206.91;5023327;28;20053;-61
2022/12/28 04:08:44;;;;;;;2.38;0.60;;;;;;;8.09;81.54;99200.88;5019054;28;20179;-60
2022/12/28 04:11:12;;;;;;;4.18;0.95;;;;;;;8.09;81.70;99213.78;5016837;28;20077;-61
2022/12/28 04:13:38;;;;;;;4.18;0.85;;;;;;;8.08;81.56;99199.16;5020379;28;20136;-60
2022/12/28 04:16:09;;;;;;;5.07;0.60;;;;;;;8.06;82.02;99199.19;5017051;28;20081;-60
2022/12/28 04:18:37;;;;;;;5.28;1.60;;;;;;;8.08;81.57;99201.75;5014593;28;20409;-61
2022/12/28 04:21:04;;;;;;;6.35;0.88;;;;;;;8.07;81.92;99202.63;5024754;28;20119;-61
2022/12/28 04:23:31;;;;;;;5.18;0.77;;;;;;;8.05;81.81;99196.59;5014499;28;20077;-60
2022/12/28 04:26:01;;;;;;;2.60;1.00;;;;;;;8.01;82.07;99192.34;5019153;28;20111;-61
2022/12/28 04:28:29;;;;;;;4.35;0.70;;;;;;;8.00;81.78;99190.63;5019844;28;20049;-60
2022/12/28 04:30:57;;;;;;;2.75;0.65;;;;;;;7.96;81.69;99185.47;5017371;28;20054;-60
2022/12/28 04:33:24;;;;;;;2.67;0.68;;;;;;;7.94;81.42;99181.19;5017410;28;20053;-61
2022/12/28 04:35:50;;;;;;;7.15;1.70;;;;;;;7.91;81.02;99183.78;5020232;28;20495;-60
2022/12/28 04:38:17;;;;;;;3.40;0.73;;;;;;;7.86;81.05;99183.81;5018539;28;20049;-60
2022/12/28 04:40:44;;;;;;;5.13;0.70;;;;;;;7.81;81.46;99176.09;5017088;28;20057;-60
2022/12/28 04:43:11;;;;;;;3.90;0.80;;;;;;;7.78;80.91;99170.09;5019033;28;20046;-60
2022/12/28 04:45:37;;;;;;;3.97;1.10;;;;;;;7.75;81.04;99163.25;5021381;28;20077;-60
2022/12/28 04:48:04;;;;;;;3.53;1.13;;;;;;;7.72;81.37;99156.41;5019763;28;20046;-60
2022/12/28 04:50:31;;;;;;;3.08;0.57;;;;;;;7.68;81.27;99148.69;5019796;28;20096;-60
2022/12/28 04:52:58;;;;;;;2.30;0.80;;;;;;;7.67;80.54;99142.66;5020493;28;20041;-60
2022/12/28 04:55:25;;;;;;;2.78;0.82;;;;;;;7.65;81.14;99139.25;5008876;28;20050;-61
2022/12/28 04:57:59;;;;;;;1.85;0.93;;;;;;;7.62;80.69;99136.69;5017746;28;20458;-60
2022/12/28 05:00:25;;;;;;;2.58;0.52;;;;;;;7.59;80.41;99124.69;5016880;28;20103;-61
2022/12/28 05:02:52;;;;;;;2.10;0.65;;;;;;;7.58;80.87;99116.94;5017840;28;20046;-60
2022/12/28 05:05:19;;;;;;;2.72;0.50;;;;;;;7.57;80.58;99115.25;5013677;28;20045;-60
2022/12/28 05:07:45;;;;;;;2.92;0.90;;;;;;;7.58;80.76;99116.94;5009980;28;20046;-60
2022/12/28 05:10:12;;;;;;;2.83;0.73;;;;;;;7.57;80.31;99112.66;5003175;28;20097;-61
2022/12/28 05:12:39;;;;;;;3.03;1.00;;;;;;;7.58;80.89;99107.50;5003158;28;20082;-61
2022/12/28 05:15:06;;;;;;;5.13;1.83;;;;;;;7.59;80.47;99114.38;5003744;28;20637;-61
2022/12/28 05:17:33;;;;;;;13.18;0.82;;;;;;;7.61;81.92;99110.91;4999176;28;20050;-61
2022/12/28 05:20:01;;;;;;;2.97;0.50;;;;;;;7.63;81.55;99110.03;5005830;28;20046;-60
2022/12/28 05:22:27;;;;;;;5.15;1.45;;;;;;;7.65;81.41;99103.16;5002970;28;20380;-60
2022/12/28 05:24:54;;;;;;;5.45;0.93;;;;;;;7.68;81.35;99108.31;5002456;28;20041;-61
2022/12/28 05:27:21;;;;;;;2.15;0.70;;;;;;;7.71;80.71;99113.41;5003560;28;20044;-61
2022/12/28 05:29:47;;;;;;;4.57;0.60;;;;;;;7.73;81.04;99100.53;4997671;28;20065;-60
2022/12/28 05:32:14;;;;;;;7.88;1.33;;;;;;;7.77;80.93;99103.97;4999535;28;20054;-61
2022/12/28 05:34:40;;;;;;;6.18;1.08;;;;;;;7.79;81.66;99102.22;5006155;28;20068;-60
2022/12/28 05:37:07;;;;;;;3.55;0.95;;;;;;;7.81;81.26;99096.19;5002639;28;20104;-60
2022/12/28 05:39:34;;;;;;;3.25;0.68;;;;;;;7.82;81.97;99094.47;5006505;28;20072;-60
2022/12/28 05:42:01;;;;;;;4.95;0.60;;;;;;;7.87;81.35;99087.53;5002502;28;20587;-60
2022/12/28 05:44:29;;;;;;;2.58;0.85;;;;;;;7.89;81.94;99080.66;5005480;28;20064;-61
2022/12/28 05:46:55;;;;;;;3.28;0.80;;;;;;;7.91;81.66;99078.91;5004233;28;20081;-60
2022/12/28 05:49:22;;;;;;;3.30;0.77;;;;;;;7.95;81.21;99070.31;5005000;28;20048;-60
2022/12/28 05:51:50;;;;;;;5.60;0.52;;;;;;;7.97;82.07;99063.41;4999613;28;20069;-61
2022/12/28 05:54:17;;;;;;;2.28;0.30;;;;;;;8.00;81.70;99061.69;5001153;28;20802;-60
2022/12/28 05:56:44;;;;;;;5.45;0.95;;;;;;;8.03;82.31;99059.06;4999881;28;20107;-60
2022/12/28 05:59:12;;;;;;;1.67;0.30;;;;;;;8.05;82.08;99057.34;5003304;28;20191;-60
2022/12/28 06:01:42;;;;;;;2.58;0.68;;;;;;;8.06;82.64;99047.00;5000214;28;20100;-60
2022/12/28 06:04:14;;;;;;;;;;;;;;;8.01;82.59;99047.91;5002229;28;20041;-61
2022/12/28 06:06:40;;;;;;;1.63;0.50;;;;;;;8.08;82.61;99039.25;5002261;28;20592;-60
2022/12/28 06:09:07;;;;;;;4.93;0.68;;;;;;;8.12;82.20;99040.94;5004845;28;20108;-60
2022/12/28 06:11:33;;;;;;;2.10;0.70;;;;;;;8.13;82.18;99034.91;4999137;28;20088;-61
2022/12/28 06:14:02;;;;;;;1.52;0.50;;;;;;;8.15;81.71;99025.44;5002383;28;20050;-61
2022/12/28 06:16:31;;;;;;;4.90;1.05;;;;;;;8.19;81.74;99021.97;5000119;28;20057;-60
2022/12/28 06:18:58;;;;;;;1.42;0.60;;;;;;;8.20;82.23;99021.09;4997235;28;20072;-61
2022/12/28 06:24:03;;;;;;;2.13;1.20;;;;;;;8.21;81.72;99012.47;5052255;28;20918;-60
2022/12/28 06:26:31;;;;;;;2.35;0.75;;;;;;;8.25;82.53;99015.03;5024266;27;20456;-61
2022/12/28 06:29:00;;;;;;;5.53;1.40;;;;;;;8.25;82.60;99004.72;5015126;28;20049;-61
2022/12/28 06:31:30;;;;;;;3.17;1.95;;;;;;;8.27;82.70;98997.81;5013907;28;20049;-60
2022/12/28 06:33:58;;;;;;;3.35;1.77;;;;;;;8.28;82.88;98991.78;5012657;28;20050;-61
2022/12/28 06:36:29;;;;;;;2.13;1.92;;;;;;;8.30;82.54;98987.44;5018646;28;20572;-60
2022/12/28 06:38:56;;;;;;;;;;;;;;;8.21;82.25;98984.09;5020378;28;20085;-60
2022/12/28 06:41:23;;;;;;;1.80;1.67;;;;;;;8.28;82.44;98979.72;5017692;28;19987;-61
2022/12/28 06:43:50;;;;;;;1.45;1.13;;;;;;;8.30;82.79;98977.13;5019124;28;20072;-60
2022/12/28 06:46:18;;;;;;;1.40;1.30;;;;;;;8.31;82.88;98964.22;5014000;28;20571;-60
2022/12/28 06:48:45;;;;;;;4.63;1.15;;;;;;;8.31;82.41;98963.38;5014329;28;20042;-60
2022/12/28 06:51:15;;;;;;;2.15;1.30;;;;;;;8.32;82.21;98959.91;5015928;28;20061;-60
2022/12/28 06:53:42;;;;;;;1.85;0.70;;;;;;;8.31;82.74;98955.63;5017961;28;20049;-60
2022/12/28 06:58:46;;;;;;;1.10;0.52;;;;;;;8.31;82.83;98940.16;5013703;28;20423;-60
2022/12/28 07:03:50;;;;;;;2.85;0.43;;;;;;;8.30;82.89;98925.53;5105598;27;20404;-60
2022/12/28 07:06:19;;;;;;;2.28;0.55;;;;;;;8.30;83.34;98915.22;5038948;28;20048;-60
2022/12/28 07:08:46;;;;;;;3.05;0.75;;;;;;;8.27;83.17;98915.28;5051362;28;20132;-60
2022/12/28 07:11:15;;;;;;;2.55;0.93;;;;;;;8.30;83.45;98904.88;5056566;28;20146;-60
2022/12/28 07:13:42;;;;;;;2.50;1.33;;;;;;;8.26;83.38;98903.22;5053733;28;20045;-60
2022/12/28 07:16:13;;;;;;;1.17;0.50;;;;;;;8.28;83.84;98897.16;5058736;28;20073;-60
2022/12/28 07:18:40;;;;;;;1.23;0.32;;;;;;;8.24;83.94;98890.34;5050405;28;21183;-60
2022/12/28 07:21:14;;;;;;;1.45;0.60;;;;;;;8.27;83.12;98889.47;5054833;28;20049;-60
2022/12/28 07:23:41;;;;;;;3.17;0.70;;;;;;;8.25;83.92;98884.34;5055589;28;20507;-59
2022/12/28 07:26:12;;;;;;;1.27;0.50;;;;;;;8.23;84.54;98879.19;5054684;28;20467;-61
2022/12/28 07:28:41;;;;;;;0.98;0.38;;;;;;;8.27;83.22;98874.00;5055144;28;20080;-60
2022/12/28 07:31:10;;;;;;;1.45;0.88;;;;;;;8.26;83.67;98861.94;5056749;28;20131;-60
2022/12/28 07:33:37;;;;;;;2.63;1.58;;;;;;;8.27;84.35;98858.53;5056922;28;20102;-60
2022/12/28 07:36:06;;;;;;;1.30;1.00;;;;;;;8.32;84.23;98857.59;5055561;28;20042;-60
2022/12/28 07:38:33;;;;;;;1.10;0.57;;;;;;;8.29;84.49;98851.59;5056821;28;20555;-60
2022/12/28 07:41:06;;;;;;;5.78;0.68;;;;;;;8.33;83.81;98851.56;5069048;28;20040;-60
2022/12/28 07:43:33;;;;;;;0.40;0.25;;;;;;;8.32;84.46;98843.81;5075997;28;20070;-60
2022/12/28 07:46:07;;;;;;;3.72;0.80;;;;;;;8.35;84.09;98838.63;5076309;28;21609;-60
2022/12/28 07:48:35;;;;;;;0.63;0.32;;;;;;;8.38;84.71;98836.03;5076215;28;20056;-60
2022/12/28 07:53:49;;;;;;;2.78;2.58;;;;;;;8.38;84.68;98830.84;5119435;27;20401;-60
2022/12/28 07:56:18;;;;;;;1.75;1.65;;;;;;;8.35;85.37;98815.41;5083649;27;20093;-60
2022/12/28 07:58:49;;;;;;;2.88;1.42;;;;;;;8.38;85.97;98810.22;5077435;28;20048;-60
2022/12/28 08:01:16;;;;;;;1.63;1.52;;;;;;;8.44;85.51;98811.84;5078238;28;20043;-60
2022/12/28 08:03:43;;;;;;;1.90;1.75;;;;;;;8.48;85.20;98801.44;5077083;28;20044;-60
2022/12/28 08:06:14;;;;;;;1.67;1.52;;;;;;;8.48;85.51;98796.28;5069295;28;20084;-60
2022/12/28 08:08:43;;;;;;;1.38;1.30;;;;;;;8.58;85.84;98798.78;5069924;28;20072;-60
2022/12/28 08:11:13;;;;;;;1.75;1.65;;;;;;;8.56;86.13;98792.78;5070302;28;20048;-60
2022/12/28 08:13:42;;;;;;;1.65;1.55;;;;;;;8.61;86.30;98785.81;5068800;28;20056;-60
2022/12/28 08:16:11;;;;;;;1.80;1.70;;;;;;;8.64;86.58;98784.94;5070023;28;20079;-60
2022/12/28 08:18:39;;;;;;;2.38;1.75;;;;;;;8.71;86.65;98786.53;5070259;28;20097;-60
2022/12/28 08:21:09;;;;;;;0.52;0.13;;;;;;;8.77;86.69;98775.25;5072729;28;20504;-60
2022/12/28 08:23:36;;;;;;;1.88;1.75;;;;;;;8.84;86.50;98772.56;5070196;28;20446;-60
2022/12/28 08:26:07;;;;;;;1.83;1.70;;;;;;;8.87;87.07;98759.59;5071758;28;20044;-60
2022/12/28 08:28:35;;;;;;;0.50;0.35;;;;;;;8.92;87.25;98759.50;5069045;28;20499;-59
2022/12/28 08:31:08;;;;;;;1.98;1.88;;;;;;;8.99;86.94;98761.13;5071433;28;20680;-60
2022/12/28 08:33:35;;;;;;;2.13;2.03;;;;;;;9.06;87.37;98761.03;5074697;28;20044;-60
2022/12/28 08:36:03;;;;;;;1.23;1.17;;;;;;;9.11;87.01;98741.97;5073698;28;20044;-60
2022/12/28 08:38:30;;;;;;;2.72;2.47;;;;;;;9.19;86.67;98746.16;5068060;28;20098;-60
2022/12/28 08:40:59;;;;;;;2.58;1.58;;;;;;;9.23;87.03;98743.47;5067158;28;20227;-60
2022/12/28 08:43:28;;;;;;;1.67;1.58;;;;;;;9.28;87.67;98734.81;5069485;28;20463;-60
2022/12/28 08:48:34;;;;;;;1.00;0.45;;;;;;;9.37;87.14;98734.63;5094333;27;20408;-60
2022/12/28 08:51:08;;;;;;;1.85;0.32;;;;;;;9.38;87.60;98729.44;5039580;28;20045;-60
2022/12/28 08:53:36;;;;;;;0.65;0.40;;;;;;;9.40;87.77;98719.06;5039899;28;20053;-60
2022/12/28 08:58:42;;;;;;;0.20;0.20;;;;;;;9.54;87.38;98715.34;5032858;28;20905;-60
2022/12/28 09:01:12;;;;;;;1.65;0.65;;;;;;;9.54;87.39;98715.34;5004778;28;20044;-60
2022/12/28 09:03:41;;;;;;;0.85;0.38;;;;;;;9.61;87.13;98706.59;5001204;28;20056;-60
2022/12/28 09:06:10;;;;;;;0.40;0.30;;;;;;;9.57;86.78;98704.94;5006996;28;20540;-60
2022/12/28 09:08:38;;;;;;;0.43;0.43;;;;;;;9.58;86.75;98701.47;5007082;28;20046;-60
2022/12/28 09:11:08;;;;;;;0.50;0.38;;;;;;;9.65;86.82;98697.88;5000844;28;20042;-60
2022/12/28 09:13:35;;;;;;;1.05;0.95;;;;;;;9.67;86.53;98690.97;4994698;28;20058;-60
2022/12/28 09:16:04;;;;;;;1.40;0.70;;;;;;;9.67;86.66;98693.56;5007830;28;20533;-60
2022/12/28 09:18:32;;;;;;;0.77;0.65;;;;;;;9.70;86.50;98688.31;5000576;28;20042;-60
2022/12/28 09:21:08;;;;;;;0.85;0.40;;;;;;;9.67;86.34;98684.94;5001415;28;20050;-60
2022/12/28 09:23:36;;;;;;;0.40;0.40;;;;;;;9.71;86.29;98679.66;5000851;28;20077;-60
2022/12/28 09:26:05;;;;;;;0.80;0.65;;;;;;;9.72;86.50;98673.63;5005239;28;20076;-60
2022/12/28 09:28:32;;;;;;;1.85;1.23;;;;;;;9.70;87.12;98664.19;5003609;28;20692;-59
2022/12/28 09:31:03;;;;;;;3.40;0.57;;;;;;;9.75;87.03;98667.50;4999574;28;20042;-61
2022/12/28 09:36:38;;;;;;;0.38;0.30;;;;;;;9.73;85.94;98658.97;5002431;28;20665;-59
2022/12/28 09:39:11;;;;;;;1.48;0.65;;;;;;;9.71;86.22;98661.56;5000287;28;20046;-59
2022/12/28 09:50:06;;;;;;;2.60;1.25;;;;;;;9.67;85.63;98644.44;5048443;27;20417;-60
2022/12/28 09:52:37;;;;;;;1.42;1.13;;;;;;;9.73;85.53;98643.44;5041912;28;20058;-60
2022/12/28 09:55:11;;;;;;;2.95;1.50;;;;;;;9.69;85.62;98640.06;5033954;28;20056;-60
2022/12/28 09:57:46;;;;;;;5.47;3.08;;;;;;;9.71;85.36;98630.56;5036166;28;20041;-61
2022/12/28 10:00:18;;;;;;;3.03;1.88;;;;;;;9.69;85.64;98627.13;5033228;28;20064;-60
2022/12/28 10:02:51;;;;;;;2.40;1.60;;;;;;;9.62;85.02;98616.09;5044587;28;20037;-61
2022/12/28 10:05:20;;;;;;;1.63;1.45;;;;;;;9.68;85.07;98620.28;5042007;28;20048;-61
2022/12/28 10:07:47;;;;;;;1.92;0.50;;;;;;;9.64;85.42;98616.06;5042285;28;20632;-60
2022/12/28 10:10:17;;;;;;;1.30;1.10;;;;;;;9.64;85.33;98597.97;5040045;28;20405;-61
2022/12/28 10:12:46;;;;;;;2.38;1.73;;;;;;;9.63;85.04;98596.25;5036394;28;20728;-61
2022/12/28 10:15:14;;;;;;;2.53;2.35;;;;;;;9.61;84.84;98598.03;5038626;28;20048;-60
2022/12/28 10:17:42;;;;;;;1.83;1.00;;;;;;;9.55;85.04;98593.00;5038471;28;20037;-60
2022/12/28 10:20:18;;;;;;;2.47;0.77;;;;;;;9.58;84.85;98593.78;5030636;28;20042;-60
2022/12/28 10:22:51;;;;;;;3.95;1.02;;;;;;;9.62;85.04;98589.38;5045101;28;20044;-60
2022/12/28 10:25:22;;;;;;;1.77;1.63;;;;;;;9.61;85.03;98577.34;5045668;28;20076;-61
2022/12/28 10:27:49;;;;;;;2.25;0.73;;;;;;;9.56;85.53;98574.00;5039944;28;20410;-61
2022/12/28 10:32:55;;;;;;;1.77;0.30;;;;;;;9.52;85.30;98558.56;5006756;27;20424;-60
2022/12/28 10:38:19;;;;;;;3.13;1.02;;;;;;;9.54;84.84;98544.75;5017416;28;20923;-60
2022/12/28 10:40:58;;;;;;;2.00;0.65;;;;;;;9.51;84.62;98541.38;4981957;28;20487;-60
2022/12/28 10:43:31;;;;;;;2.53;0.47;;;;;;;9.50;84.62;98533.66;4982419;28;20109;-60
2022/12/28 10:46:00;;;;;;;1.55;0.55;;;;;;;9.57;85.19;98521.44;4988902;28;20051;-60
2022/12/28 10:48:31;;;;;;;3.05;0.75;;;;;;;9.49;84.88;98514.69;4974803;28;20050;-60
2022/12/28 10:51:11;;;;;;;1.42;0.63;;;;;;;9.54;85.17;98513.75;4982504;28;20093;-60
2022/12/28 10:58:55;;;;;;;0.88;0.35;;;;;;;9.51;84.53;98483.66;5038329;27;20405;-60
2022/12/28 11:04:07;;;;;;;1.33;0.68;;;;;;;9.75;83.98;98466.69;5035461;28;20917;-60
2022/12/28 11:06:49;;;;;;;1.77;1.55;;;;;;;9.58;85.04;98454.19;5015790;28;20108;-60
2022/12/28 11:09:20;;;;;;;1.13;1.00;;;;;;;9.54;84.64;98441.38;5019659;28;20642;-60
2022/12/28 11:11:49;;;;;;;3.63;1.52;;;;;;;9.52;84.90;98444.84;5016603;28;20124;-59
2022/12/28 11:17:20;;;;;;;0.57;0.20;;;;;;;9.52;84.87;98424.16;5034938;27;20390;-61
2022/12/28 11:19:50;;;;;;;1.13;0.80;;;;;;;9.57;85.16;98423.19;5003542;28;20580;-60
2022/12/28 11:22:23;;;;;;;2.22;0.52;;;;;;;9.52;85.08;98415.56;5002527;28;20077;-59
2022/12/28 11:24:50;;;;;;;1.55;0.68;;;;;;;9.52;85.13;98403.50;5002809;28;20104;-60
2022/12/28 11:27:20;;;;;;;2.40;0.95;;;;;;;9.55;84.89;98383.66;5006106;28;20046;-60
2022/12/28 11:29:49;;;;;;;1.25;0.45;;;;;;;9.58;85.07;98386.13;4997734;28;20399;-60
2022/12/28 11:32:29;;;;;;;1.45;1.35;;;;;;;9.55;84.79;98370.72;5000182;28;20042;-60
2022/12/28 11:34:56;;;;;;;0.80;0.40;;;;;;;9.49;85.06;98351.88;4998637;28;20128;-60
2022/12/28 11:37:23;;;;;;;2.67;0.75;;;;;;;9.52;84.78;98341.47;4999557;28;20116;-60
2022/12/28 11:39:51;;;;;;;1.20;0.82;;;;;;;9.45;85.17;98324.41;5004668;28;20540;-60
2022/12/28 11:45:15;;;;;;;2.42;0.70;;;;;;;9.51;84.83;98308.75;5019966;28;20418;-60
2022/12/28 11:47:44;;;;;;;1.13;0.40;;;;;;;9.54;85.00;98306.97;5022361;28;20053;-60
2022/12/28 11:56:09;;;;;;;1.80;1.13;;;;;;;9.63;84.32;98286.06;5055026;28;20418;-60
2022/12/28 12:04:10;;;;;;;0.90;0.45;;;;;;;9.66;84.11;98234.25;5044408;27;20417;-59
2022/12/28 12:12:02;;;;;;;2.80;2.30;;;;;;;9.64;84.51;98202.44;5008051;28;20403;-59
2022/12/28 12:14:35;;;;;;;1.73;1.63;;;;;;;9.57;84.47;98200.94;5002687;28;20053;-60
2022/12/28 12:17:10;;;;;;;2.95;1.90;;;;;;;9.61;84.68;98187.88;5004480;28;20073;-60
2022/12/28 12:19:41;;;;;;;1.95;1.70;;;;;;;9.61;84.28;98179.25;5000505;28;20054;-60
2022/12/28 12:24:53;;;;;;;0.70;0.35;;;;;;;9.62;84.18;98155.09;5081980;27;20944;-60
2022/12/28 12:30:20;;;;;;;2.78;0.68;;;;;;;9.64;84.10;98140.41;5003295;28;20454;-61
2022/12/28 12:35:44;;;;;;;1.38;0.63;;;;;;;9.63;84.46;98120.63;5008122;27;20819;-61
2022/12/28 12:44:14;;;;;;;5.15;1.63;;;;;;;9.59;84.41;98094.00;5039445;27;20398;-60
2022/12/28 12:58:14;;;;;;;2.13;0.43;;;;;;;9.62;84.62;98051.72;5057557;28;20395;-60
2022/12/28 13:06:18;;;;;;;0.40;0.40;;;;;;;9.63;84.97;98012.06;5094624;27;20404;-61
2022/12/28 13:08:49;;;;;;;0.40;0.20;;;;;;;9.67;84.81;98008.50;5081819;28;20068;-61
2022/12/28 13:11:18;;;;;;;1.55;0.20;;;;;;;9.69;84.70;97996.34;5077956;28;20143;-60
2022/12/28 13:13:49;;;;;;;0.50;0.38;;;;;;;9.71;84.81;97991.13;5077148;28;20040;-60
2022/12/28 13:16:18;;;;;;;0.63;0.32;;;;;;;9.70;84.97;97977.38;5081854;28;20102;-60
2022/12/28 13:19:03;;;;;;;0.50;0.40;;;;;;;9.72;84.46;97961.78;5079557;28;20171;-60
2022/12/28 13:21:48;;;;;;;1.45;0.30;;;;;;;9.74;84.37;97960.88;5078953;28;20122;-59
2022/12/28 13:24:19;;;;;;;0.43;0.22;;;;;;;9.79;84.66;97949.53;5079060;28;21188;-60
2022/12/28 13:26:46;;;;;;;0.47;0.22;;;;;;;9.79;84.98;97954.69;5079559;28;20163;-60
2022/12/28 13:29:18;;;;;;;0.43;0.25;;;;;;;9.80;84.52;97938.28;5079930;28;20079;-60
2022/12/28 13:31:48;;;;;;;0.75;0.20;;;;;;;9.80;85.16;97925.38;5080842;28;20079;-60
2022/12/28 13:34:17;;;;;;;;;;;;;;;9.71;85.22;97932.53;5079746;28;20045;-60
2022/12/28 13:36:55;;;;;;;0.52;0.30;;;;;;;9.75;84.48;97916.03;5081153;28;20007;-60
2022/12/28 13:39:23;;;;;;;0.88;0.60;;;;;;;9.80;84.60;97899.50;5079006;28;20045;-60
2022/12/28 13:41:52;;;;;;;0.52;0.45;;;;;;;9.82;84.93;97903.72;5078346;28;20083;-59
2022/12/28 13:47:27;;;;;;;0.68;0.68;;;;;;;9.81;84.84;97875.34;5055425;27;20404;-60
2022/12/28 13:50:17;;;;;;;0.28;0.28;;;;;;;9.84;84.65;97885.56;5035449;28;20045;-60
2022/12/28 13:55:26;;;;;;;1.23;1.23;;;;;;;9.95;84.46;97886.03;5039049;28;20394;-59
2022/12/28 13:57:58;;;;;;;0.40;0.30;;;;;;;9.91;84.53;97871.53;5020156;28;20445;-61
2022/12/28 14:00:26;;;;;;;1.13;1.13;;;;;;;9.93;85.40;97874.91;5019531;28;20061;-60
2022/12/28 14:02:54;;;;;;;3.33;1.25;;;;;;;9.91;85.06;97853.44;5017668;28;20159;-61
2022/12/28 14:05:24;;;;;;;2.30;2.05;;;;;;;9.98;84.70;97857.50;5021917;28;20077;-59
2022/12/28 14:07:53;;;;;;;1.80;1.35;;;;;;;10.00;84.86;97847.94;5017141;28;20137;-60
2022/12/28 14:10:21;;;;;;;1.42;1.30;;;;;;;10.00;84.54;97837.59;5015335;28;20428;-61
2022/12/28 14:12:49;;;;;;;1.33;1.00;;;;;;;10.03;84.95;97859.91;5018662;28;20076;-60
2022/12/28 14:15:17;;;;;;;1.08;1.08;;;;;;;10.09;84.97;97853.66;5019240;28;20181;-60
2022/12/28 14:17:46;;;;;;;1.80;1.17;;;;;;;10.09;84.87;97849.34;5019221;28;20050;-60
2022/12/28 14:20:12;;;;;;;0.95;0.95;;;;;;;10.08;85.08;97844.22;5014857;28;20637;-60
2022/12/28 14:22:39;;;;;;;1.70;1.60;;;;;;;10.13;85.04;97829.38;5017145;28;20095;-61
2022/12/28 14:25:16;;;;;;;1.15;1.15;;;;;;;10.12;85.82;97843.22;5017865;28;20104;-60
2022/12/28 14:28:05;;;;;;;0.90;0.90;;;;;;;10.11;85.74;97839.81;5018161;28;20046;-61
2022/12/28 14:33:19;;;;;;;0.75;0.75;;;;;;;10.47;84.65;97817.78;5037657;28;20911;-60
2022/12/28 14:35:54;;;;;;;1.75;0.32;;;;;;;10.35;85.64;97828.59;5031756;28;20049;-60
2022/12/28 14:38:24;;;;;;;0.95;0.45;;;;;;;10.33;85.60;97820.06;5032722;28;20054;-60